createdAt,value
2022-08-22T00:20:02.940Z,113
2022-08-22T00:50:02.262Z,112
2022-08-22T01:20:04.573Z,109
2022-08-22T01:50:04.263Z,110
2022-08-22T02:20:01.306Z,108
2022-08-22T02:49:58.110Z,106
2022-08-22T03:20:01.782Z,104
2022-08-22T03:50:02.178Z,104
2022-08-22T04:20:00.147Z,104
2022-08-22T04:49:58.529Z,103
2022-08-22T05:20:01.272Z,102
2022-08-22T05:50:01.267Z,104
2022-08-22T06:20:03.515Z,99
2022-08-22T06:50:07.912Z,128
2022-08-22T07:20:15.177Z,106
2022-08-22T07:50:16.673Z,104
2022-08-22T08:20:23.503Z,104
2022-08-22T08:50:26.718Z,102
2022-08-22T09:20:32.867Z,104
2022-08-22T09:51:46.221Z,101
2022-08-22T10:21:43.413Z,98
2022-08-22T10:51:48.752Z,99
2022-08-22T11:21:54.563Z,98
2022-08-22T11:51:58.221Z,97
2022-08-22T12:27:26.828Z,98
2022-08-22T12:57:20.788Z,96
2022-08-22T13:27:25.994Z,97
2022-08-22T13:57:32.491Z,96
2022-08-22T14:27:34.249Z,97
2022-08-22T14:57:35.369Z,97
2022-08-22T15:27:39.942Z,92
2022-08-22T15:57:43.211Z,95
2022-08-22T16:27:46.435Z,93
2022-08-22T16:57:48.772Z,93
2022-08-22T17:27:46.154Z,94
2022-08-22T17:57:45.592Z,91
2022-08-22T18:27:45.778Z,94
2022-08-22T18:57:41.851Z,92
2022-08-22T19:27:37.438Z,89
2022-08-22T19:57:37.499Z,89
2022-08-22T20:27:32.580Z,89
2022-08-22T20:57:32.101Z,89
2022-08-22T21:27:36.736Z,86
2022-08-22T21:57:32.835Z,86
2022-08-22T22:27:35.977Z,85
2022-08-22T22:57:34.521Z,85
2022-08-22T23:27:35.754Z,84
2022-08-22T23:57:34.238Z,83
